createdAt,value
2022-11-29T00:06:55.724Z,42.58
2022-11-29T00:14:19.192Z,42.74
2022-11-29T00:21:46.202Z,42.64
2022-11-29T00:29:07.168Z,42.66
2022-11-29T00:36:34.241Z,42.61
2022-11-29T00:44:03.895Z,42.6
2022-11-29T00:51:23.620Z,42.6
2022-11-29T00:58:50.616Z,42.67
2022-11-29T01:06:15.788Z,42.61
2022-11-29T01:13:54.293Z,42.67
2022-11-29T01:21:34.438Z,42.53
2022-11-29T01:29:02.263Z,42.6
2022-11-29T01:36:28.105Z,42.56
2022-11-29T01:43:54.160Z,42.53
2022-11-29T01:51:35.308Z,42.68
2022-11-29T01:59:15.246Z,42.59
2022-11-29T02:06:52.927Z,42.71
2022-11-29T02:14:42.527Z,42.62
2022-11-29T02:22:42.267Z,42.79
2022-11-29T02:30:42.331Z,42.63
2022-11-29T02:38:43.256Z,42.62
2022-11-29T02:46:34.544Z,42.61
2022-11-29T02:54:37.702Z,42.68
2022-11-29T03:02:32.031Z,42.44
2022-11-29T03:10:35.944Z,42.41
2022-11-29T03:18:21.604Z,42.43
2022-11-29T03:26:15.974Z,42.58
2022-11-29T03:34:25.076Z,42.53
2022-11-29T03:42:27.724Z,42.53
2022-11-29T03:50:23.787Z,42.42
2022-11-29T03:58:26.472Z,42.29
2022-11-29T04:06:16.128Z,42.36
2022-11-29T04:13:59.765Z,42.53
2022-11-29T04:21:46.447Z,42.38
2022-11-29T04:29:49.208Z,42.46
2022-11-29T04:37:47.257Z,42.8
2022-11-29T04:45:46.324Z,42.33
2022-11-29T04:53:59.258Z,42.24
2022-11-29T05:02:07.747Z,42.14
2022-11-29T05:10:07.263Z,42.36
2022-11-29T05:17:19.311Z,41.46
2022-11-29T05:24:15.638Z,40.88
2022-11-29T05:31:11.327Z,40.78
2022-11-29T05:38:11.940Z,40.73
2022-11-29T05:45:07.836Z,40.65
2022-11-29T05:52:26.408Z,40.42
2022-11-29T05:59:40.185Z,40.47
2022-11-29T06:06:41.112Z,40.39
2022-11-29T06:13:39.298Z,38.78
2022-11-29T06:20:42.530Z,37.43
2022-11-29T06:27:37.139Z,37.46
2022-11-29T06:34:38.878Z,37.37
2022-11-29T06:41:26.695Z,37.16
2022-11-29T06:48:05.928Z,37.12
2022-11-29T06:55:01.107Z,37.12
2022-11-29T07:02:04.122Z,37.58
2022-11-29T07:09:08.916Z,37.76
2022-11-29T07:16:14.925Z,38.04
2022-11-29T07:23:17.170Z,38.34
2022-11-29T07:30:14.439Z,38.21
2022-11-29T07:37:24.779Z,38.11
2022-11-29T07:44:34.087Z,38.4
2022-11-29T07:51:49.937Z,38.76
2022-11-29T07:58:35.037Z,38.84
2022-11-29T08:05:22.454Z,39.09
2022-11-29T08:11:49.754Z,39.28
2022-11-29T08:18:23.995Z,39.47
2022-11-29T08:24:57.017Z,39.43
2022-11-29T08:31:36.106Z,39.88
2022-11-29T08:37:59.989Z,39.93
2022-11-29T08:44:27.406Z,40.03
2022-11-29T08:51:03.959Z,40.17
2022-11-29T08:57:40.115Z,40.05
2022-11-29T09:04:10.029Z,40.07
2022-11-29T09:10:48.476Z,40.11
2022-11-29T09:17:23.441Z,40.66
2022-11-29T09:23:58.403Z,40.25
2022-11-29T09:30:25.488Z,40.63
2022-11-29T09:37:00.259Z,41.97
2022-11-29T09:44:10.985Z,41.34
2022-11-29T09:52:30.475Z,43.37
2022-11-29T10:00:42.373Z,43.2
2022-11-29T10:08:54.884Z,43.85
2022-11-29T10:17:12.507Z,43.29
2022-11-29T10:25:42.655Z,43.17
2022-11-29T10:33:22.290Z,43.17
2022-11-29T10:41:39.465Z,43.04
2022-11-29T10:49:34.080Z,43.03
2022-11-29T10:57:27.900Z,42.97
2022-11-29T11:05:31.465Z,42.94
2022-11-29T11:13:49.410Z,42.88
2022-11-29T11:21:54.663Z,42.92
2022-11-29T11:29:59.503Z,42.84
2022-11-29T11:37:57.815Z,42.82
2022-11-29T11:46:18.579Z,42.49
2022-11-29T11:54:24.915Z,42.66
2022-11-29T12:02:18.989Z,42.73
2022-11-29T12:10:26.407Z,42.64
2022-11-29T12:18:46.732Z,42.62
2022-11-29T12:26:58.474Z,42.68
2022-11-29T12:35:02.860Z,42.79
2022-11-29T12:43:16.521Z,42.72
2022-11-29T12:51:19.612Z,42.6
2022-11-29T12:59:41.951Z,42.54
2022-11-29T13:07:55.689Z,42.62
2022-11-29T13:16:08.832Z,42.65
2022-11-29T13:24:43.562Z,42.33
2022-11-29T13:32:42.217Z,42.67
2022-11-29T13:41:08.331Z,42.51
2022-11-29T13:49:41.062Z,42.79
2022-11-29T13:58:08.558Z,42.6
2022-11-29T14:06:01.259Z,42.65
2022-11-29T14:14:25.951Z,42.49
2022-11-29T14:22:22.892Z,42.72
2022-11-29T14:30:16.532Z,42.29
2022-11-29T14:38:17.048Z,42.48
2022-11-29T14:46:18.879Z,42.77
2022-11-29T14:54:24.119Z,42.46
2022-11-29T15:02:28.880Z,42.69
2022-11-29T15:10:30.729Z,42.47
2022-11-29T15:18:35.048Z,42.44
2022-11-29T15:26:41.051Z,42.5
2022-11-29T15:34:42.545Z,42.51
2022-11-29T15:42:47.723Z,42.58
2022-11-29T15:50:23.207Z,42.55
2022-11-29T15:58:12.679Z,42.42
2022-11-29T16:06:06.995Z,42.04
2022-11-29T16:14:12.677Z,41.72
2022-11-29T16:22:01.849Z,42.03
2022-11-29T16:31:04.912Z,42.27
2022-11-29T16:39:05.642Z,42.15
2022-11-29T16:46:57.038Z,42.24
2022-11-29T16:54:58.331Z,42.09
2022-11-29T17:02:57.143Z,42.09
2022-11-29T17:10:48.032Z,41.81
2022-11-29T17:18:32.162Z,41.92
2022-11-29T17:26:18.483Z,41.92
2022-11-29T17:34:04.565Z,41.89
2022-11-29T17:41:33.113Z,42
2022-11-29T17:49:00.761Z,42.03
2022-11-29T17:56:29.957Z,42.58
2022-11-29T18:04:08.878Z,42.63
2022-11-29T18:11:51.215Z,42.84
2022-11-29T18:19:18.556Z,42.85
2022-11-29T18:26:53.462Z,42.76
2022-11-29T18:34:16.134Z,42.97
2022-11-29T18:41:47.607Z,42.96
2022-11-29T18:49:12.731Z,42.97
2022-11-29T18:56:38.955Z,42.99
2022-11-29T19:04:13.029Z,43.02
2022-11-29T19:11:30.839Z,43.05
2022-11-29T19:19:10.240Z,42.6
2022-11-29T19:27:00.783Z,42.04
2022-11-29T19:34:50.169Z,41.92
2022-11-29T19:42:37.744Z,41.83
2022-11-29T19:50:19.058Z,41.59
2022-11-29T19:57:57.605Z,42.02
2022-11-29T20:05:30.492Z,42.4
2022-11-29T20:13:08.540Z,42.33
2022-11-29T20:20:52.423Z,42.43
2022-11-29T20:28:37.297Z,42.46
2022-11-29T20:36:39.831Z,42.27
2022-11-29T20:44:51.257Z,42.67
2022-11-29T20:52:44.542Z,42.61
2022-11-29T21:00:31.377Z,42.65
2022-11-29T21:08:08.162Z,42.69
2022-11-29T21:15:27.661Z,42.73
2022-11-29T21:23:04.261Z,42.7
2022-11-29T21:31:05.931Z,42.81
2022-11-29T21:38:42.589Z,42.68
2022-11-29T21:45:56.572Z,42.66
2022-11-29T21:53:09.128Z,42.8
2022-11-29T22:00:26.807Z,42.67
2022-11-29T22:07:36.395Z,42.68
2022-11-29T22:14:54.966Z,42.71
2022-11-29T22:22:16.492Z,42.66
2022-11-29T22:29:40.098Z,42.68
2022-11-29T22:36:57.944Z,42.78
2022-11-29T22:44:14.502Z,42.77
2022-11-29T22:51:27.786Z,42.76
2022-11-29T22:58:40.721Z,42.7
2022-11-29T23:06:04.759Z,42.6
2022-11-29T23:13:35.727Z,42.74
2022-11-29T23:20:51.729Z,42.68
2022-11-29T23:28:16.594Z,42.73
2022-11-29T23:35:06.499Z,42.76
2022-11-29T23:42:36.337Z,42.5
2022-11-29T23:49:53.208Z,42.56
2022-11-29T23:57:30.184Z,42.33
